createdAt,value
2018-08-31T00:01:01.181Z,98363.19
2018-08-31T00:03:41.091Z,98356.06
2018-08-31T00:06:21.035Z,98359.14
2018-08-31T00:09:03.339Z,98368.03
2018-08-31T00:11:43.541Z,98364.20
2018-08-31T00:14:12.231Z,98359.44
2018-08-31T00:16:41.254Z,98359.36
2018-08-31T00:19:10.053Z,98368.65
2018-08-31T00:21:38.738Z,98367.85
2018-08-31T00:24:18.698Z,98371.47
2018-08-31T00:26:58.540Z,98364.22
2018-08-31T00:29:38.387Z,98361.27
2018-08-31T00:34:28.539Z,98359.41
2018-08-31T00:39:20.413Z,98355.56
2018-08-31T00:42:09.186Z,98352.80
2018-08-31T00:44:49.065Z,98344.56
2018-08-31T00:47:17.895Z,98343.53
2018-08-31T00:49:46.653Z,98338.66
2018-08-31T00:52:15.433Z,98335.94
2018-08-31T00:54:44.117Z,98333.22
2018-08-31T00:57:13.096Z,98334.91
2018-08-31T00:59:41.882Z,98336.27
2018-08-31T01:02:10.595Z,98336.31
2018-08-31T01:04:39.351Z,98333.84
2018-08-31T01:07:08.421Z,98331.13
2018-08-31T01:09:37.253Z,98338.77
2018-08-31T01:12:06.125Z,98338.63
2018-08-31T01:14:35.013Z,98331.88
2018-08-31T01:17:03.906Z,98331.48
2018-08-31T01:19:32.621Z,98336.06
2018-08-31T01:22:01.441Z,98332.77
2018-08-31T01:24:30.211Z,98339.95
2018-08-31T01:26:58.959Z,98330.21
2018-08-31T01:29:27.701Z,98324.43
2018-08-31T01:31:56.619Z,98332.33
2018-08-31T01:34:25.643Z,98331.94
2018-08-31T01:36:54.351Z,98327.26
2018-08-31T01:39:23.138Z,98328.30
2018-08-31T01:41:51.958Z,98338.11
2018-08-31T01:44:20.735Z,98333.72
2018-08-31T01:46:49.889Z,98333.27
2018-08-31T01:49:18.663Z,98336.04
2018-08-31T01:51:47.319Z,98332.05
2018-08-31T01:54:16.140Z,98334.52
2018-08-31T01:56:44.853Z,98334.60
2018-08-31T01:59:13.743Z,98323.91
2018-08-31T02:01:42.501Z,98325.27
2018-08-31T02:04:11.437Z,98326.83
2018-08-31T02:06:40.211Z,98320.28
2018-08-31T02:09:14.184Z,98331.56
2018-08-31T02:11:43.216Z,98330.58
2018-08-31T02:14:12.135Z,98327.06
2018-08-31T02:16:40.859Z,98323.31
2018-08-31T02:19:09.679Z,98324.27
2018-08-31T02:21:38.489Z,98321.23
2018-08-31T02:24:07.484Z,98326.80
2018-08-31T02:26:36.478Z,98317.05
2018-08-31T02:29:05.235Z,98311.75
2018-08-31T02:31:34.092Z,98313.98
2018-08-31T02:34:02.884Z,98305.37
2018-08-31T02:36:31.748Z,98303.74
2018-08-31T02:39:00.604Z,98299.88
2018-08-31T02:41:29.271Z,98305.62
2018-08-31T02:43:58.247Z,98308.94
2018-08-31T02:46:26.968Z,98308.66
2018-08-31T02:48:55.974Z,98300.32
2018-08-31T02:51:24.668Z,98299.44
2018-08-31T02:53:53.378Z,98300.52
2018-08-31T02:56:22.081Z,98307.30
2018-08-31T02:58:50.741Z,98301.92
2018-08-31T03:01:19.570Z,98304.47
2018-08-31T03:03:48.470Z,98306.63
2018-08-31T03:06:17.257Z,98309.50
2018-08-31T03:08:46.181Z,98307.50
2018-08-31T03:11:14.869Z,98306.63
2018-08-31T03:13:43.678Z,98306.98
2018-08-31T03:16:12.442Z,98307.86
2018-08-31T03:18:41.138Z,98305.87
2018-08-31T03:21:10.216Z,98302.48
2018-08-31T03:23:38.886Z,98304.88
2018-08-31T03:26:07.598Z,98300.20
2018-08-31T03:28:36.288Z,98302.77
2018-08-31T03:31:05.078Z,98302.40
2018-08-31T03:33:33.973Z,98304.27
2018-08-31T03:36:02.857Z,98295.77
2018-08-31T03:38:31.504Z,98298.64
2018-08-31T03:41:00.521Z,98303.19
2018-08-31T03:43:29.287Z,98302.15
2018-08-31T03:45:58.210Z,98298.31
2018-08-31T03:48:26.865Z,98296.41
2018-08-31T03:50:55.674Z,98298.88
2018-08-31T03:53:24.569Z,98297.23
2018-08-31T03:55:53.224Z,98301.42
2018-08-31T03:58:21.957Z,98298.95
2018-08-31T04:00:50.630Z,98296.36
2018-08-31T04:03:19.290Z,98295.88
2018-08-31T04:05:48.194Z,98298.19
2018-08-31T04:08:16.993Z,98299.73
2018-08-31T04:10:45.654Z,98295.48
2018-08-31T04:13:14.584Z,98298.11
2018-08-31T04:15:43.336Z,98290.37
2018-08-31T04:18:12.030Z,98294.13
2018-08-31T04:20:40.770Z,98297.16
2018-08-31T04:23:09.558Z,98298.31
2018-08-31T04:25:38.518Z,98294.52
2018-08-31T04:28:07.286Z,98292.17
2018-08-31T04:30:35.910Z,98292.81
2018-08-31T04:33:04.635Z,98296.25
2018-08-31T04:35:33.342Z,98293.91
2018-08-31T04:38:02.378Z,98296.50
2018-08-31T04:40:31.186Z,98304.08
2018-08-31T04:43:00.089Z,98310.30
2018-08-31T04:45:28.774Z,98309.81
2018-08-31T04:47:57.538Z,98298.00
2018-08-31T04:50:26.515Z,98296.09
2018-08-31T04:52:55.136Z,98291.11
2018-08-31T04:55:23.765Z,98286.28
2018-08-31T04:57:52.430Z,98286.41
2018-08-31T05:00:21.110Z,98281.22
2018-08-31T05:02:50.270Z,98276.55
2018-08-31T05:05:19.154Z,98273.08
2018-08-31T05:07:47.958Z,98272.05
2018-08-31T05:10:16.725Z,98269.81
2018-08-31T05:12:45.461Z,98259.96
2018-08-31T05:15:14.307Z,98263.72
2018-08-31T05:17:43.241Z,98267.58
2018-08-31T05:20:11.933Z,98276.27
2018-08-31T05:22:40.704Z,98271.84
2018-08-31T05:25:09.468Z,98276.39
2018-08-31T05:27:38.450Z,98272.19
2018-08-31T05:30:07.543Z,98281.75
2018-08-31T05:32:36.937Z,98287.47
2018-08-31T05:35:06.054Z,98283.67
2018-08-31T05:37:35.027Z,98286.70
2018-08-31T05:40:03.991Z,98289.87
2018-08-31T05:42:32.796Z,98283.67
2018-08-31T05:45:01.614Z,98278.10
2018-08-31T05:47:30.269Z,98276.27
2018-08-31T05:49:59.081Z,98278.00
2018-08-31T05:52:27.892Z,98287.37
2018-08-31T05:54:56.634Z,98279.56
2018-08-31T05:57:25.561Z,98273.34
2018-08-31T05:59:54.248Z,98280.38
2018-08-31T06:02:23.123Z,98291.10
2018-08-31T06:04:51.829Z,98282.88
2018-08-31T06:07:20.571Z,98291.50
2018-08-31T06:09:49.303Z,98288.27
2018-08-31T06:12:18.033Z,98279.14
2018-08-31T06:14:46.758Z,98275.62
2018-08-31T06:17:15.713Z,98281.86
2018-08-31T06:19:44.381Z,98291.38
2018-08-31T06:22:13.326Z,98292.91
2018-08-31T06:24:42.116Z,98290.55
2018-08-31T06:27:10.883Z,98288.30
2018-08-31T06:29:39.610Z,98286.78
2018-08-31T06:32:08.485Z,98281.50
2018-08-31T06:34:37.274Z,98281.97
2018-08-31T06:37:06.597Z,98281.81
2018-08-31T06:39:35.337Z,98284.86
2018-08-31T06:42:04.384Z,98290.36
2018-08-31T06:44:33.136Z,98283.41
2018-08-31T06:47:01.809Z,98278.37
2018-08-31T06:49:30.548Z,98281.64
2018-08-31T06:51:59.294Z,98284.61
2018-08-31T06:54:28.121Z,98287.88
2018-08-31T06:56:56.776Z,98285.48
2018-08-31T06:59:25.551Z,98288.44
2018-08-31T07:01:54.433Z,98291.39
2018-08-31T07:04:23.172Z,98284.59
2018-08-31T07:06:52.065Z,98289.13
2018-08-31T07:09:20.713Z,98291.66
2018-08-31T07:11:49.484Z,98287.65
2018-08-31T07:14:18.580Z,98288.55
2018-08-31T07:16:47.282Z,98300.85
2018-08-31T07:19:16.963Z,98297.58
2018-08-31T07:21:45.786Z,98299.14
2018-08-31T07:24:14.599Z,98300.90
2018-08-31T07:26:43.547Z,98297.61
2018-08-31T07:29:12.234Z,98294.23
2018-08-31T07:31:41.022Z,98295.36
2018-08-31T07:34:09.945Z,98295.55
2018-08-31T07:36:38.613Z,98297.94
2018-08-31T07:39:09.785Z,98300.04
2018-08-31T07:41:38.569Z,98300.05
2018-08-31T07:44:07.567Z,98303.52
2018-08-31T07:46:36.343Z,98305.05
2018-08-31T07:49:05.082Z,98306.86
2018-08-31T07:51:33.886Z,98305.57
2018-08-31T07:54:02.678Z,98306.42
2018-08-31T07:56:31.414Z,98314.92
2018-08-31T07:59:00.185Z,98311.81
2018-08-31T08:01:28.858Z,98308.91
2018-08-31T08:03:57.563Z,98299.48
2018-08-31T08:06:26.239Z,98291.98
2018-08-31T08:08:54.993Z,98294.98
2018-08-31T08:11:23.929Z,98296.17
2018-08-31T08:13:52.622Z,98306.77
2018-08-31T08:16:21.413Z,98311.34
2018-08-31T08:18:50.157Z,98316.05
2018-08-31T08:21:19.219Z,98317.98
2018-08-31T08:23:48.097Z,98317.97
2018-08-31T08:26:16.769Z,98317.10
2018-08-31T08:28:45.913Z,98310.86
2018-08-31T08:31:14.641Z,98313.86
2018-08-31T08:33:43.898Z,98313.02
2018-08-31T08:36:12.587Z,98318.02
2018-08-31T08:38:41.358Z,98309.63
2018-08-31T08:41:10.074Z,98318.61
2018-08-31T08:43:38.918Z,98319.98
2018-08-31T08:46:07.789Z,98318.30
2018-08-31T08:48:36.790Z,98314.41
2018-08-31T08:51:05.385Z,98317.72
2018-08-31T08:53:34.279Z,98323.92
2018-08-31T08:56:03.003Z,98323.52
2018-08-31T08:58:31.703Z,98324.11
2018-08-31T09:01:00.463Z,98329.11
2018-08-31T09:03:29.205Z,98328.20
2018-08-31T09:05:57.906Z,98322.39
2018-08-31T09:08:26.724Z,98325.34
2018-08-31T09:10:55.498Z,98325.05
2018-08-31T09:13:24.146Z,98320.45
2018-08-31T09:15:52.866Z,98318.95
2018-08-31T09:18:26.583Z,98312.34
2018-08-31T09:20:56.170Z,98317.02
2018-08-31T09:23:25.162Z,98317.69
2018-08-31T09:25:54.832Z,98321.66
2018-08-31T09:28:23.457Z,98322.13
2018-08-31T09:30:52.205Z,98315.41
2018-08-31T09:33:21.014Z,98324.63
2018-08-31T09:35:49.690Z,98328.30
2018-08-31T09:38:19.386Z,98329.43
2018-08-31T09:40:48.246Z,98323.94
2018-08-31T09:43:16.995Z,98330.45
2018-08-31T09:45:45.665Z,98320.62
2018-08-31T09:48:14.511Z,98319.84
2018-08-31T09:50:43.197Z,98314.94
2018-08-31T09:53:11.977Z,98319.19
2018-08-31T09:55:40.897Z,98315.41
2018-08-31T09:58:09.556Z,98313.91
2018-08-31T10:00:43.621Z,98310.69
2018-08-31T10:03:17.418Z,98310.73
2018-08-31T10:05:46.167Z,98312.58
2018-08-31T10:08:14.800Z,98309.72
2018-08-31T10:10:43.905Z,98312.32
2018-08-31T10:13:14.337Z,98307.43
2018-08-31T10:15:43.932Z,98297.27
2018-08-31T10:18:12.679Z,98297.70
2018-08-31T10:20:41.446Z,98300.44
2018-08-31T10:23:10.276Z,98300.87
2018-08-31T10:25:39.587Z,98302.36
2018-08-31T10:28:15.050Z,98307.48
2018-08-31T10:30:43.930Z,98302.70
2018-08-31T10:33:12.773Z,98301.69
2018-08-31T10:35:41.656Z,98304.55
2018-08-31T10:38:10.410Z,98305.27
2018-08-31T10:40:39.344Z,98306.63
2018-08-31T10:43:08.119Z,98294.56
2018-08-31T10:45:36.801Z,98301.55
2018-08-31T10:48:05.934Z,98305.98
2018-08-31T10:50:34.715Z,98302.58
2018-08-31T10:53:03.512Z,98299.23
2018-08-31T10:55:32.157Z,98302.37
2018-08-31T10:58:00.825Z,98295.78
2018-08-31T11:00:29.851Z,98292.55
2018-08-31T11:02:58.805Z,98290.09
2018-08-31T11:05:27.648Z,98286.09
2018-08-31T11:07:56.421Z,98287.64
2018-08-31T11:10:25.102Z,98292.27
2018-08-31T11:12:54.014Z,98289.73
2018-08-31T11:15:23.057Z,98292.09
2018-08-31T11:17:51.733Z,98287.23
2018-08-31T11:20:20.432Z,98285.60
2018-08-31T11:22:49.394Z,98284.44
2018-08-31T11:25:18.161Z,98287.63
2018-08-31T11:27:46.873Z,98289.49
2018-08-31T11:30:15.820Z,98288.62
2018-08-31T11:32:44.954Z,98281.81
2018-08-31T11:35:13.733Z,98287.14
2018-08-31T11:37:42.410Z,98288.69
2018-08-31T11:40:11.185Z,98299.32
2018-08-31T11:42:39.981Z,98294.48
2018-08-31T11:45:09.082Z,98290.52
2018-08-31T11:47:37.961Z,98293.05
2018-08-31T11:50:07.028Z,98286.83
2018-08-31T11:52:35.731Z,98290.94
2018-08-31T11:55:04.602Z,98284.09
2018-08-31T11:57:33.222Z,98286.40
2018-08-31T12:00:01.893Z,98293.73
2018-08-31T12:02:30.621Z,98289.84
2018-08-31T12:04:59.378Z,98292.51
2018-08-31T12:07:28.073Z,98294.33
2018-08-31T12:09:58.482Z,98296.20
2018-08-31T12:12:30.521Z,98286.06
2018-08-31T12:14:59.380Z,98289.06
2018-08-31T12:17:28.138Z,98292.56
2018-08-31T12:19:56.846Z,98288.09
2018-08-31T12:22:25.793Z,98279.33
2018-08-31T12:24:54.629Z,98279.08
2018-08-31T12:27:23.329Z,98281.78
2018-08-31T12:29:52.065Z,98281.47
2018-08-31T12:32:20.766Z,98277.53
2018-08-31T12:34:49.664Z,98282.04
2018-08-31T12:37:19.103Z,98272.20
2018-08-31T12:39:47.806Z,98271.41
2018-08-31T12:42:16.521Z,98269.71
2018-08-31T12:44:45.462Z,98273.78
2018-08-31T12:47:14.217Z,98278.55
2018-08-31T12:49:42.901Z,98274.97
2018-08-31T12:52:11.604Z,98278.15
2018-08-31T12:54:40.370Z,98268.63
2018-08-31T12:57:09.229Z,98272.38
2018-08-31T12:59:38.026Z,98271.48
2018-08-31T13:02:06.668Z,98264.27
2018-08-31T13:04:35.514Z,98264.73
2018-08-31T13:07:04.582Z,98275.15
2018-08-31T13:09:33.249Z,98267.15
2018-08-31T13:12:01.992Z,98273.17
2018-08-31T13:14:30.701Z,98270.25
2018-08-31T13:16:59.502Z,98274.36
2018-08-31T13:19:28.175Z,98270.23
2018-08-31T13:21:56.982Z,98270.44
2018-08-31T13:24:25.626Z,98277.27
2018-08-31T13:26:54.289Z,98271.58
2018-08-31T13:29:23.187Z,98277.71
2018-08-31T13:31:51.977Z,98280.48
2018-08-31T13:34:20.834Z,98276.27
2018-08-31T13:36:49.513Z,98281.17
2018-08-31T13:39:18.251Z,98278.09
2018-08-31T13:41:47.199Z,98278.69
2018-08-31T13:44:15.994Z,98283.36
2018-08-31T13:46:44.983Z,98285.58
2018-08-31T13:49:14.279Z,98288.41
2018-08-31T13:51:43.115Z,98288.41
2018-08-31T13:54:12.065Z,98285.34
2018-08-31T13:56:40.786Z,98280.80
2018-08-31T13:59:09.607Z,98288.49
2018-08-31T14:01:38.332Z,98286.16
2018-08-31T14:04:07.119Z,98283.46
2018-08-31T14:06:36.112Z,98284.22
2018-08-31T14:09:06.491Z,98289.98
2018-08-31T14:11:35.425Z,98292.25
2018-08-31T14:14:04.216Z,98293.98
2018-08-31T14:16:35.558Z,98293.18
2018-08-31T14:19:05.622Z,98288.30
2018-08-31T14:21:34.450Z,98291.60
2018-08-31T14:24:03.150Z,98292.27
2018-08-31T14:26:32.063Z,98290.23
2018-08-31T14:29:00.846Z,98289.53
2018-08-31T14:31:29.638Z,98289.31
2018-08-31T14:33:58.334Z,98281.81
2018-08-31T14:36:27.315Z,98287.15
2018-08-31T14:38:55.930Z,98289.05
2018-08-31T14:41:24.623Z,98287.67
2018-08-31T14:43:53.615Z,98287.72
2018-08-31T14:46:22.393Z,98286.93
2018-08-31T14:48:51.281Z,98288.67
2018-08-31T14:51:20.179Z,98286.48
2018-08-31T14:53:49.003Z,98277.39
2018-08-31T14:56:18.704Z,98285.69
2018-08-31T14:58:47.450Z,98280.57
2018-08-31T15:01:16.511Z,98284.80
2018-08-31T15:03:45.185Z,98285.91
2018-08-31T15:06:13.958Z,98277.70
2018-08-31T15:08:42.682Z,98276.34
2018-08-31T15:11:11.421Z,98274.94
2018-08-31T15:13:40.383Z,98283.27
2018-08-31T15:16:09.120Z,98282.92
2018-08-31T15:18:37.811Z,98285.44
2018-08-31T15:21:06.736Z,98283.53
2018-08-31T15:23:35.780Z,98287.72
2018-08-31T15:26:04.529Z,98280.67
2018-08-31T15:28:33.375Z,98278.16
2018-08-31T15:31:02.082Z,98286.83
2018-08-31T15:33:30.773Z,98284.32
2018-08-31T15:35:59.549Z,98284.64
2018-08-31T15:38:28.672Z,98278.06
2018-08-31T15:40:57.508Z,98285.69
2018-08-31T15:43:26.334Z,98283.18
2018-08-31T15:45:55.284Z,98288.64
2018-08-31T15:48:23.996Z,98286.17
2018-08-31T15:50:52.862Z,98291.73
2018-08-31T15:53:21.623Z,98283.08
2018-08-31T15:55:50.614Z,98272.72
2018-08-31T15:58:19.264Z,98285.48
2018-08-31T16:00:47.945Z,98279.89
2018-08-31T16:03:18.338Z,98289.34
2018-08-31T16:05:47.057Z,98287.76
2018-08-31T16:08:15.981Z,98285.68
2018-08-31T16:10:44.753Z,98284.56
2018-08-31T16:13:13.552Z,98293.36
2018-08-31T16:15:42.298Z,98289.86
2018-08-31T16:18:11.075Z,98285.85
2018-08-31T16:20:39.881Z,98282.55
2018-08-31T16:23:08.713Z,98294.97
2018-08-31T16:25:37.448Z,98306.81
2018-08-31T16:28:06.244Z,98303.13
2018-08-31T16:30:35.021Z,98304.41
2018-08-31T16:33:04.097Z,98294.63
2018-08-31T16:35:32.934Z,98290.31
2018-08-31T16:38:01.785Z,98294.84
2018-08-31T16:40:30.626Z,98288.70
2018-08-31T16:42:59.375Z,98288.84
2018-08-31T16:45:28.243Z,98291.33
2018-08-31T16:47:56.963Z,98296.66
2018-08-31T16:50:25.716Z,98293.73
2018-08-31T16:52:54.437Z,98289.86
2018-08-31T16:55:23.158Z,98300.90
2018-08-31T16:57:51.925Z,98299.08
2018-08-31T17:00:20.762Z,98309.21
2018-08-31T17:02:49.995Z,98314.98
2018-08-31T17:05:18.949Z,98309.31
2018-08-31T17:07:47.713Z,98314.33
2018-08-31T17:10:16.527Z,98313.88
2018-08-31T17:12:45.226Z,98319.58
2018-08-31T17:15:14.029Z,98315.00
2018-08-31T17:17:42.895Z,98314.09
2018-08-31T17:20:11.711Z,98321.83
2018-08-31T17:22:40.481Z,98320.89
2018-08-31T17:25:09.679Z,98329.97
2018-08-31T17:27:43.723Z,98331.31
2018-08-31T17:30:17.634Z,98331.15
2018-08-31T17:32:51.534Z,98325.15
2018-08-31T17:35:26.006Z,98326.03
2018-08-31T17:37:54.834Z,98318.69
2018-08-31T17:40:23.621Z,98312.66
2018-08-31T17:42:52.706Z,98323.10
2018-08-31T17:45:21.986Z,98327.14
2018-08-31T17:47:51.330Z,98335.78
2018-08-31T17:50:20.410Z,98347.27
2018-08-31T17:52:49.150Z,98344.67
2018-08-31T17:55:17.965Z,98343.51
2018-08-31T17:57:46.821Z,98340.33
2018-08-31T18:00:15.537Z,98337.79
2018-08-31T18:02:44.438Z,98337.79
2018-08-31T18:05:13.225Z,98346.88
2018-08-31T18:07:41.884Z,98345.29
2018-08-31T18:10:10.810Z,98349.69
2018-08-31T18:12:39.533Z,98359.95
2018-08-31T18:15:08.232Z,98363.17
2018-08-31T18:17:37.069Z,98358.52
2018-08-31T18:20:06.046Z,98353.44
2018-08-31T18:22:35.165Z,98347.95
2018-08-31T18:25:04.045Z,98345.44
2018-08-31T18:27:32.724Z,98365.63
2018-08-31T18:30:01.534Z,98377.65
2018-08-31T18:32:30.196Z,98387.60
2018-08-31T18:34:59.005Z,98378.51
2018-08-31T18:37:27.757Z,98377.36
2018-08-31T18:39:56.528Z,98377.55
2018-08-31T18:42:25.377Z,98370.73
2018-08-31T18:44:54.135Z,98375.42
2018-08-31T18:47:22.977Z,98380.03
2018-08-31T18:49:51.867Z,98382.99
2018-08-31T18:52:20.690Z,98388.39
2018-08-31T18:54:49.527Z,98392.72
2018-08-31T18:57:18.321Z,98388.27
2018-08-31T18:59:47.007Z,98394.64
2018-08-31T19:02:15.818Z,98393.84
2018-08-31T19:04:44.603Z,98387.94
2018-08-31T19:07:13.474Z,98387.59
2018-08-31T19:09:42.373Z,98379.94
2018-08-31T19:12:11.413Z,98387.32
2018-08-31T19:14:40.158Z,98385.16
2018-08-31T19:17:08.925Z,98388.84
2018-08-31T19:19:37.736Z,98390.05
2018-08-31T19:22:06.496Z,98385.62
2018-08-31T19:24:35.213Z,98389.53
2018-08-31T19:27:04.105Z,98391.97
2018-08-31T19:29:32.852Z,98386.70
2018-08-31T19:32:01.993Z,98387.60
2018-08-31T19:34:30.764Z,98388.97
2018-08-31T19:36:59.939Z,98387.60
2018-08-31T19:39:28.955Z,98387.37
2018-08-31T19:41:57.752Z,98391.45
2018-08-31T19:44:26.590Z,98394.88
2018-08-31T19:46:55.394Z,98397.30
2018-08-31T19:49:24.015Z,98400.48
2018-08-31T19:51:52.917Z,98405.37
2018-08-31T19:54:21.648Z,98406.73
2018-08-31T19:56:50.346Z,98413.55
2018-08-31T19:59:18.988Z,98409.80
2018-08-31T20:01:47.710Z,98413.49
2018-08-31T20:04:16.521Z,98419.64
2018-08-31T20:06:45.287Z,98422.29
2018-08-31T20:09:14.431Z,98421.95
2018-08-31T20:11:43.181Z,98435.98
2018-08-31T20:14:11.874Z,98431.31
2018-08-31T20:16:40.627Z,98435.96
2018-08-31T20:19:09.392Z,98441.41
2018-08-31T20:21:38.259Z,98438.86
2018-08-31T20:24:07.020Z,98434.11
2018-08-31T20:26:35.645Z,98440.92
2018-08-31T20:29:04.396Z,98447.50
2018-08-31T20:31:33.081Z,98442.28
2018-08-31T20:34:02.112Z,98436.59
2018-08-31T20:36:30.770Z,98438.69
2018-08-31T20:38:59.466Z,98441.92
2018-08-31T20:41:28.268Z,98443.84
2018-08-31T20:43:57.156Z,98445.91
2018-08-31T20:46:26.263Z,98444.12
2018-08-31T20:48:55.008Z,98446.37
2018-08-31T20:51:23.699Z,98448.23
2018-08-31T20:53:52.466Z,98450.00
2018-08-31T20:56:21.141Z,98456.73
2018-08-31T20:58:49.994Z,98455.97
2018-08-31T21:01:18.684Z,98462.02
2018-08-31T21:03:47.525Z,98461.79
2018-08-31T21:06:16.488Z,98461.33
2018-08-31T21:08:45.303Z,98451.53
2018-08-31T21:11:14.020Z,98448.33
2018-08-31T21:13:42.938Z,98447.41
2018-08-31T21:16:11.717Z,98452.02
2018-08-31T21:18:40.516Z,98453.55
2018-08-31T21:21:09.267Z,98448.77
2018-08-31T21:23:38.406Z,98452.19
2018-08-31T21:26:07.501Z,98448.10
2018-08-31T21:28:36.302Z,98456.04
2018-08-31T21:31:05.003Z,98455.80
2018-08-31T21:33:33.746Z,98459.66
2018-08-31T21:36:02.450Z,98451.65
2018-08-31T21:38:31.198Z,98450.29
2018-08-31T21:40:59.887Z,98443.64
2018-08-31T21:43:28.663Z,98440.45
2018-08-31T21:45:57.349Z,98446.60
2018-08-31T21:48:26.133Z,98447.36
2018-08-31T21:50:55.009Z,98456.09
2018-08-31T21:53:23.665Z,98450.22
2018-08-31T21:55:52.398Z,98449.52
2018-08-31T21:58:21.218Z,98439.67
2018-08-31T22:00:49.997Z,98449.83
2018-08-31T22:03:18.721Z,98455.28
2018-08-31T22:05:48.289Z,98454.31
2018-08-31T22:08:18.498Z,98457.77
2018-08-31T22:10:47.401Z,98456.34
2018-08-31T22:13:16.540Z,98455.78
2018-08-31T22:15:45.542Z,98460.00
2018-08-31T22:18:14.459Z,98462.48
2018-08-31T22:20:43.381Z,98465.30
2018-08-31T22:23:12.110Z,98461.28
2018-08-31T22:25:40.857Z,98464.81
2018-08-31T22:28:09.558Z,98466.63
2018-08-31T22:30:38.383Z,98471.88
2018-08-31T22:33:07.131Z,98474.73
2018-08-31T22:35:35.954Z,98483.55
2018-08-31T22:38:04.722Z,98488.11
2018-08-31T22:40:33.471Z,98488.82
2018-08-31T22:43:02.298Z,98486.42
2018-08-31T22:45:30.944Z,98487.86
2018-08-31T22:47:59.753Z,98488.98
2018-08-31T22:50:28.625Z,98485.94
2018-08-31T22:52:57.333Z,98475.79
2018-08-31T22:55:26.151Z,98468.25
2018-08-31T22:57:54.850Z,98470.73
2018-08-31T23:00:23.666Z,98474.48
2018-08-31T23:02:52.574Z,98458.41
2018-08-31T23:05:21.420Z,98457.28
2018-08-31T23:07:55.565Z,98462.00
2018-08-31T23:10:24.293Z,98463.04
2018-08-31T23:12:52.961Z,98462.56
2018-08-31T23:15:21.665Z,98454.56
2018-08-31T23:17:52.205Z,98462.23
2018-08-31T23:20:22.029Z,98457.27
2018-08-31T23:22:51.052Z,98446.63
2018-08-31T23:25:25.439Z,98441.20
2018-08-31T23:27:54.084Z,98453.43
2018-08-31T23:30:22.774Z,98449.77
2018-08-31T23:32:51.646Z,98445.51
2018-08-31T23:35:20.530Z,98428.72
2018-08-31T23:37:49.388Z,98431.82
2018-08-31T23:40:18.137Z,98435.19
2018-08-31T23:42:47.041Z,98442.92
2018-08-31T23:45:15.732Z,98446.53
2018-08-31T23:47:44.734Z,98446.39
2018-08-31T23:50:13.900Z,98449.77
2018-08-31T23:52:42.946Z,98445.73
2018-08-31T23:55:11.790Z,98438.84
2018-08-31T23:57:40.595Z,98435.04
